sensor_id;sensor_type;location;lat;lon;timestamp;pressure;altitude;pressure_sealevel;temperature;humidity
70370;BME280;57790;51.356;-2.906;2023-12-04T00:01:25;99891.13;;;10.08;100.00
70370;BME280;57790;51.356;-2.906;2023-12-04T00:04:26;99891.31;;;10.06;100.00
70370;BME280;57790;51.356;-2.906;2023-12-04T00:07:26;99891.78;;;10.10;100.00
70370;BME280;57790;51.356;-2.906;2023-12-04T00:10:27;99876.19;;;10.15;100.00
70370;BME280;57790;51.356;-2.906;2023-12-04T00:13:27;99881.47;;;10.00;100.00
70370;BME280;57790;51.356;-2.906;2023-12-04T00:16:27;99864.97;;;10.13;100.00
70370;BME280;57790;51.356;-2.906;2023-12-04T00:19:28;99863.38;;;10.04;100.00
70370;BME280;57790;51.356;-2.906;2023-12-04T00:22:28;99850.78;;;10.06;100.00
70370;BME280;57790;51.356;-2.906;2023-12-04T00:25:29;99841.28;;;10.11;100.00
70370;BME280;57790;51.356;-2.906;2023-12-04T00:28:29;99829.53;;;10.14;100.00
70370;BME280;57790;51.356;-2.906;2023-12-04T00:31:30;99804.69;;;10.00;100.00
70370;BME280;57790;51.356;-2.906;2023-12-04T00:34:31;99805.84;;;9.98;100.00
70370;BME280;57790;51.356;-2.906;2023-12-04T00:37:32;99795.63;;;10.09;100.00
70370;BME280;57790;51.356;-2.906;2023-12-04T00:40:37;99780.28;;;10.05;100.00
70370;BME280;57790;51.356;-2.906;2023-12-04T00:43:37;99774.34;;;10.03;100.00
70370;BME280;57790;51.356;-2.906;2023-12-04T00:46:38;99758.38;;;9.96;100.00
70370;BME280;57790;51.356;-2.906;2023-12-04T00:49:38;99744.59;;;10.01;100.00
70370;BME280;57790;51.356;-2.906;2023-12-04T00:52:39;99731.06;;;10.10;100.00
70370;BME280;57790;51.356;-2.906;2023-12-04T00:55:39;99719.38;;;10.05;100.00
70370;BME280;57790;51.356;-2.906;2023-12-04T00:58:39;99708.16;;;10.03;100.00
70370;BME280;57790;51.356;-2.906;2023-12-04T01:01:40;99690.63;;;10.02;100.00
70370;BME280;57790;51.356;-2.906;2023-12-04T01:04:40;99679.13;;;9.95;100.00
70370;BME280;57790;51.356;-2.906;2023-12-04T01:07:44;99661.16;;;9.90;100.00
70370;BME280;57790;51.356;-2.906;2023-12-04T01:10:44;99659.69;;;10.02;100.00
70370;BME280;57790;51.356;-2.906;2023-12-04T01:13:44;99657.91;;;10.09;100.00
70370;BME280;57790;51.356;-2.906;2023-12-04T01:16:45;99642.66;;;10.11;100.00
70370;BME280;57790;51.356;-2.906;2023-12-04T01:19:45;99639.13;;;10.04;100.00
70370;BME280;57790;51.356;-2.906;2023-12-04T01:22:46;99634.47;;;10.06;100.00
70370;BME280;57790;51.356;-2.906;2023-12-04T01:25:46;99618.53;;;10.00;100.00
70370;BME280;57790;51.356;-2.906;2023-12-04T01:28:48;99602.88;;;10.05;100.00
70370;BME280;57790;51.356;-2.906;2023-12-04T01:31:48;99599.59;;;10.03;100.00
70370;BME280;57790;51.356;-2.906;2023-12-04T01:34:48;99579.69;;;10.07;100.00
70370;BME280;57790;51.356;-2.906;2023-12-04T01:37:49;99567.06;;;10.09;100.00
70370;BME280;57790;51.356;-2.906;2023-12-04T01:40:49;99546.59;;;10.18;100.00
70370;BME280;57790;51.356;-2.906;2023-12-04T01:43:50;99522.88;;;10.09;100.00
70370;BME280;57790;51.356;-2.906;2023-12-04T01:46:50;99514.13;;;10.09;100.00
70370;BME280;57790;51.356;-2.906;2023-12-04T01:49:51;99505.53;;;10.07;100.00
70370;BME280;57790;51.356;-2.906;2023-12-04T01:52:52;99481.19;;;9.97;100.00
70370;BME280;57790;51.356;-2.906;2023-12-04T01:55:53;99471.91;;;10.01;100.00
70370;BME280;57790;51.356;-2.906;2023-12-04T01:58:54;99453.09;;;9.96;100.00
70370;BME280;57790;51.356;-2.906;2023-12-04T02:01:54;99457.84;;;10.00;100.00
70370;BME280;57790;51.356;-2.906;2023-12-04T02:04:57;99450.44;;;9.96;100.00
70370;BME280;57790;51.356;-2.906;2023-12-04T02:08:00;99455.13;;;9.94;100.00
70370;BME280;57790;51.356;-2.906;2023-12-04T02:11:01;99447.69;;;9.82;100.00
70370;BME280;57790;51.356;-2.906;2023-12-04T02:14:01;99462.81;;;9.89;100.00
70370;BME280;57790;51.356;-2.906;2023-12-04T02:17:05;99452.91;;;9.97;100.00
70370;BME280;57790;51.356;-2.906;2023-12-04T02:20:06;99468.50;;;9.86;100.00
70370;BME280;57790;51.356;-2.906;2023-12-04T02:23:07;99478.94;;;9.94;100.00
70370;BME280;57790;51.356;-2.906;2023-12-04T02:26:16;99475.03;;;9.90;100.00
70370;BME280;57790;51.356;-2.906;2023-12-04T02:29:27;99493.63;;;9.96;100.00
70370;BME280;57790;51.356;-2.906;2023-12-04T02:32:31;99502.56;;;9.95;100.00
70370;BME280;57790;51.356;-2.906;2023-12-04T02:35:35;99503.47;;;10.02;100.00
70370;BME280;57790;51.356;-2.906;2023-12-04T02:38:36;99513.44;;;10.00;100.00
70370;BME280;57790;51.356;-2.906;2023-12-04T02:41:37;99524.84;;;10.01;100.00
70370;BME280;57790;51.356;-2.906;2023-12-04T02:44:38;99522.38;;;9.99;100.00
70370;BME280;57790;51.356;-2.906;2023-12-04T02:47:38;99537.47;;;9.99;100.00
70370;BME280;57790;51.356;-2.906;2023-12-04T02:50:39;99539.56;;;10.10;100.00
70370;BME280;57790;51.356;-2.906;2023-12-04T02:53:39;99547.66;;;10.02;100.00
70370;BME280;57790;51.356;-2.906;2023-12-04T02:56:40;99540.72;;;10.01;100.00
70370;BME280;57790;51.356;-2.906;2023-12-04T02:59:40;99549.41;;;9.95;100.00
70370;BME280;57790;51.356;-2.906;2023-12-04T03:02:40;99549.88;;;9.98;100.00
70370;BME280;57790;51.356;-2.906;2023-12-04T03:05:41;99556.88;;;10.06;100.00
70370;BME280;57790;51.356;-2.906;2023-12-04T03:08:42;99556.00;;;9.99;100.00
70370;BME280;57790;51.356;-2.906;2023-12-04T03:11:42;99551.94;;;10.03;100.00
70370;BME280;57790;51.356;-2.906;2023-12-04T03:14:43;99552.47;;;10.13;100.00
70370;BME280;57790;51.356;-2.906;2023-12-04T03:17:43;99556.75;;;10.14;100.00
70370;BME280;57790;51.356;-2.906;2023-12-04T03:20:43;99547.69;;;10.23;100.00
70370;BME280;57790;51.356;-2.906;2023-12-04T03:23:44;99557.56;;;10.14;100.00
70370;BME280;57790;51.356;-2.906;2023-12-04T03:26:44;99546.22;;;10.21;100.00
70370;BME280;57790;51.356;-2.906;2023-12-04T03:29:45;99555.16;;;10.20;100.00
70370;BME280;57790;51.356;-2.906;2023-12-04T03:32:45;99545.31;;;10.28;100.00
70370;BME280;57790;51.356;-2.906;2023-12-04T03:35:46;99547.41;;;10.18;100.00
70370;BME280;57790;51.356;-2.906;2023-12-04T03:38:46;99543.44;;;10.07;100.00
70370;BME280;57790;51.356;-2.906;2023-12-04T03:41:47;99557.91;;;10.11;100.00
70370;BME280;57790;51.356;-2.906;2023-12-04T03:44:48;99547.53;;;10.10;100.00
70370;BME280;57790;51.356;-2.906;2023-12-04T03:47:48;99555.75;;;10.15;100.00
70370;BME280;57790;51.356;-2.906;2023-12-04T03:50:48;99543.03;;;10.10;100.00
70370;BME280;57790;51.356;-2.906;2023-12-04T03:53:49;99539.84;;;10.15;100.00
70370;BME280;57790;51.356;-2.906;2023-12-04T03:56:49;99532.81;;;10.22;100.00
70370;BME280;57790;51.356;-2.906;2023-12-04T03:59:50;99527.63;;;10.14;100.00
70370;BME280;57790;51.356;-2.906;2023-12-04T04:02:50;99523.16;;;10.14;100.00
70370;BME280;57790;51.356;-2.906;2023-12-04T04:05:50;99523.84;;;10.23;100.00
70370;BME280;57790;51.356;-2.906;2023-12-04T04:08:51;99531.53;;;10.18;100.00
70370;BME280;57790;51.356;-2.906;2023-12-04T04:11:52;99530.78;;;10.24;100.00
70370;BME280;57790;51.356;-2.906;2023-12-04T04:14:53;99528.22;;;10.31;100.00
70370;BME280;57790;51.356;-2.906;2023-12-04T04:17:53;99529.56;;;10.27;100.00
70370;BME280;57790;51.356;-2.906;2023-12-04T04:20:53;99528.59;;;10.28;100.00
70370;BME280;57790;51.356;-2.906;2023-12-04T04:23:54;99529.84;;;10.32;100.00
70370;BME280;57790;51.356;-2.906;2023-12-04T04:26:54;99529.84;;;10.32;100.00
70370;BME280;57790;51.356;-2.906;2023-12-04T04:29:54;99521.28;;;10.30;100.00
70370;BME280;57790;51.356;-2.906;2023-12-04T04:32:55;99531.69;;;10.31;100.00
70370;BME280;57790;51.356;-2.906;2023-12-04T04:35:55;99526.56;;;10.30;100.00
70370;BME280;57790;51.356;-2.906;2023-12-04T04:38:56;99517.34;;;10.26;100.00
70370;BME280;57790;51.356;-2.906;2023-12-04T04:41:56;99523.09;;;10.29;100.00
70370;BME280;57790;51.356;-2.906;2023-12-04T04:44:56;99524.28;;;10.27;100.00
70370;BME280;57790;51.356;-2.906;2023-12-04T04:47:57;99518.63;;;10.30;100.00
70370;BME280;57790;51.356;-2.906;2023-12-04T04:50:57;99518.09;;;10.20;100.00
70370;BME280;57790;51.356;-2.906;2023-12-04T04:53:58;99508.22;;;10.28;100.00
70370;BME280;57790;51.356;-2.906;2023-12-04T04:56:58;99500.28;;;10.28;100.00
70370;BME280;57790;51.356;-2.906;2023-12-04T04:59:58;99503.09;;;10.27;100.00
70370;BME280;57790;51.356;-2.906;2023-12-04T05:02:59;99512.63;;;10.21;100.00
70370;BME280;57790;51.356;-2.906;2023-12-04T05:06:00;99503.94;;;10.27;100.00
70370;BME280;57790;51.356;-2.906;2023-12-04T05:09:00;99508.31;;;10.20;100.00
70370;BME280;57790;51.356;-2.906;2023-12-04T05:12:00;99503.22;;;10.19;100.00
70370;BME280;57790;51.356;-2.906;2023-12-04T05:15:01;99506.69;;;10.19;100.00
70370;BME280;57790;51.356;-2.906;2023-12-04T05:18:01;99505.84;;;10.19;100.00
70370;BME280;57790;51.356;-2.906;2023-12-04T05:21:02;99508.69;;;10.17;100.00
70370;BME280;57790;51.356;-2.906;2023-12-04T05:24:03;99507.69;;;10.18;100.00
70370;BME280;57790;51.356;-2.906;2023-12-04T05:27:03;99504.22;;;10.18;100.00
70370;BME280;57790;51.356;-2.906;2023-12-04T05:30:04;99504.16;;;10.11;100.00
70370;BME280;57790;51.356;-2.906;2023-12-04T05:33:05;99499.84;;;10.10;100.00
70370;BME280;57790;51.356;-2.906;2023-12-04T05:36:06;99499.66;;;10.11;100.00
70370;BME280;57790;51.356;-2.906;2023-12-04T05:39:07;99495.38;;;10.10;100.00
70370;BME280;57790;51.356;-2.906;2023-12-04T05:42:07;99496.19;;;10.11;100.00
70370;BME280;57790;51.356;-2.906;2023-12-04T05:45:08;99488.03;;;10.06;100.00
70370;BME280;57790;51.356;-2.906;2023-12-04T05:48:09;99497.16;;;10.03;100.00
70370;BME280;57790;51.356;-2.906;2023-12-04T05:51:10;99495.34;;;10.04;100.00
70370;BME280;57790;51.356;-2.906;2023-12-04T05:54:11;99490.66;;;10.06;100.00
70370;BME280;57790;51.356;-2.906;2023-12-04T05:57:11;99483.72;;;10.05;100.00
70370;BME280;57790;51.356;-2.906;2023-12-04T06:00:12;99486.56;;;10.03;100.00
70370;BME280;57790;51.356;-2.906;2023-12-04T06:03:13;99486.16;;;10.00;100.00
70370;BME280;57790;51.356;-2.906;2023-12-04T06:06:14;99491.06;;;10.03;100.00
70370;BME280;57790;51.356;-2.906;2023-12-04T06:09:14;99486.78;;;10.02;100.00
70370;BME280;57790;51.356;-2.906;2023-12-04T06:12:16;99483.50;;;10.00;100.00
70370;BME280;57790;51.356;-2.906;2023-12-04T06:15:17;99485.31;;;9.99;100.00
70370;BME280;57790;51.356;-2.906;2023-12-04T06:18:17;99486.16;;;10.00;100.00
70370;BME280;57790;51.356;-2.906;2023-12-04T06:21:18;99487.50;;;9.96;100.00
70370;BME280;57790;51.356;-2.906;2023-12-04T06:24:18;99486.06;;;9.93;100.00
70370;BME280;57790;51.356;-2.906;2023-12-04T06:27:20;99477.13;;;9.94;100.00
70370;BME280;57790;51.356;-2.906;2023-12-04T06:30:20;99486.50;;;9.97;100.00
70370;BME280;57790;51.356;-2.906;2023-12-04T06:33:21;99484.66;;;9.97;100.00
70370;BME280;57790;51.356;-2.906;2023-12-04T06:36:22;99481.19;;;9.97;100.00
70370;BME280;57790;51.356;-2.906;2023-12-04T06:39:25;99473.91;;;9.99;100.00
70370;BME280;57790;51.356;-2.906;2023-12-04T06:42:27;99478.41;;;9.98;100.00
70370;BME280;57790;51.356;-2.906;2023-12-04T06:45:27;99476.56;;;9.99;100.00
70370;BME280;57790;51.356;-2.906;2023-12-04T06:48:28;99479.84;;;10.01;100.00
70370;BME280;57790;51.356;-2.906;2023-12-04T06:51:28;99480.84;;;10.00;100.00
70370;BME280;57790;51.356;-2.906;2023-12-04T06:54:29;99480.47;;;10.03;100.00
70370;BME280;57790;51.356;-2.906;2023-12-04T06:57:29;99478.44;;;10.05;100.00
70370;BME280;57790;51.356;-2.906;2023-12-04T07:00:30;99479.25;;;10.05;100.00
70370;BME280;57790;51.356;-2.906;2023-12-04T07:03:30;99477.63;;;10.04;100.00
70370;BME280;57790;51.356;-2.906;2023-12-04T07:06:31;99479.06;;;10.07;100.00
70370;BME280;57790;51.356;-2.906;2023-12-04T07:09:32;99482.53;;;10.07;100.00
70370;BME280;57790;51.356;-2.906;2023-12-04T07:12:32;99473.78;;;10.07;100.00
70370;BME280;57790;51.356;-2.906;2023-12-04T07:15:33;99475.41;;;10.08;100.00
70370;BME280;57790;51.356;-2.906;2023-12-04T07:18:33;99470.94;;;10.08;100.00
70370;BME280;57790;51.356;-2.906;2023-12-04T07:21:35;99467.28;;;10.09;100.00
70370;BME280;57790;51.356;-2.906;2023-12-04T07:24:36;99467.06;;;10.11;100.00
70370;BME280;57790;51.356;-2.906;2023-12-04T07:27:36;99474.06;;;10.19;100.00
70370;BME280;57790;51.356;-2.906;2023-12-04T07:30:38;99475.47;;;10.14;100.00
70370;BME280;57790;51.356;-2.906;2023-12-04T07:33:38;99481.41;;;10.17;100.00
70370;BME280;57790;51.356;-2.906;2023-12-04T07:36:39;99471.63;;;10.17;100.00
70370;BME280;57790;51.356;-2.906;2023-12-04T07:39:39;99475.09;;;10.18;100.00
70370;BME280;57790;51.356;-2.906;2023-12-04T07:42:40;99480.84;;;10.21;100.00
70370;BME280;57790;51.356;-2.906;2023-12-04T07:45:41;99489.22;;;10.25;100.00
70370;BME280;57790;51.356;-2.906;2023-12-04T07:48:41;99486.69;;;10.17;100.00
70370;BME280;57790;51.356;-2.906;2023-12-04T07:51:43;99493.50;;;10.26;100.00
70370;BME280;57790;51.356;-2.906;2023-12-04T07:54:44;99500.63;;;10.25;100.00
70370;BME280;57790;51.356;-2.906;2023-12-04T07:57:44;99504.28;;;10.24;100.00
70370;BME280;57790;51.356;-2.906;2023-12-04T08:00:45;99503.66;;;10.22;100.00
70370;BME280;57790;51.356;-2.906;2023-12-04T08:03:45;99509.25;;;10.27;100.00
70370;BME280;57790;51.356;-2.906;2023-12-04T08:06:46;99510.41;;;10.25;100.00
70370;BME280;57790;51.356;-2.906;2023-12-04T08:09:46;99512.88;;;10.26;100.00
70370;BME280;57790;51.356;-2.906;2023-12-04T08:12:46;99518.16;;;10.26;100.00
70370;BME280;57790;51.356;-2.906;2023-12-04T08:15:47;99517.81;;;10.29;100.00
70370;BME280;57790;51.356;-2.906;2023-12-04T08:18:47;99512.50;;;10.29;100.00
70370;BME280;57790;51.356;-2.906;2023-12-04T08:21:48;99509.59;;;10.24;100.00
70370;BME280;57790;51.356;-2.906;2023-12-04T08:24:48;99512.31;;;10.31;100.00
70370;BME280;57790;51.356;-2.906;2023-12-04T08:27:48;99513.53;;;10.28;100.00
70370;BME280;57790;51.356;-2.906;2023-12-04T08:30:50;99516.16;;;10.28;100.00
70370;BME280;57790;51.356;-2.906;2023-12-04T08:33:50;99522.31;;;10.35;100.00
70370;BME280;57790;51.356;-2.906;2023-12-04T08:36:50;99525.16;;;10.34;100.00
70370;BME280;57790;51.356;-2.906;2023-12-04T08:39:51;99527.63;;;10.35;100.00
70370;BME280;57790;51.356;-2.906;2023-12-04T08:42:51;99527.00;;;10.33;100.00
70370;BME280;57790;51.356;-2.906;2023-12-04T08:45:52;99526.38;;;10.31;100.00
70370;BME280;57790;51.356;-2.906;2023-12-04T08:48:52;99526.38;;;10.31;100.00
70370;BME280;57790;51.356;-2.906;2023-12-04T08:51:52;99526.19;;;10.33;100.00
70370;BME280;57790;51.356;-2.906;2023-12-04T08:54:53;99523.34;;;10.34;100.00
70370;BME280;57790;51.356;-2.906;2023-12-04T08:57:54;99521.31;;;10.36;100.00
70370;BME280;57790;51.356;-2.906;2023-12-04T09:00:54;99515.41;;;10.34;100.00
70370;BME280;57790;51.356;-2.906;2023-12-04T09:03:55;99525.59;;;10.37;100.00
70370;BME280;57790;51.356;-2.906;2023-12-04T09:06:56;99515.63;;;10.39;100.00
70370;BME280;57790;51.356;-2.906;2023-12-04T09:09:56;99522.94;;;10.37;100.00
70370;BME280;57790;51.356;-2.906;2023-12-04T09:12:57;99522.41;;;10.42;100.00
70370;BME280;57790;51.356;-2.906;2023-12-04T09:15:57;99519.09;;;10.40;100.00
70370;BME280;57790;51.356;-2.906;2023-12-04T09:18:57;99514.63;;;10.40;100.00
70370;BME280;57790;51.356;-2.906;2023-12-04T09:21:58;99518.28;;;10.39;100.00
70370;BME280;57790;51.356;-2.906;2023-12-04T09:24:58;99516.66;;;10.38;100.00
70370;BME280;57790;51.356;-2.906;2023-12-04T09:27:59;99521.31;;;10.36;100.00
70370;BME280;57790;51.356;-2.906;2023-12-04T09:30:59;99523.34;;;10.34;100.00
70370;BME280;57790;51.356;-2.906;2023-12-04T09:33:59;99521.47;;;10.28;100.00
70370;BME280;57790;51.356;-2.906;2023-12-04T09:37:00;99526.38;;;10.31;100.00
70370;BME280;57790;51.356;-2.906;2023-12-04T09:40:00;99520.25;;;10.31;100.00
70370;BME280;57790;51.356;-2.906;2023-12-04T09:43:01;99523.78;;;10.38;100.00
70370;BME280;57790;51.356;-2.906;2023-12-04T09:46:01;99525.59;;;10.37;100.00
70370;BME280;57790;51.356;-2.906;2023-12-04T09:49:02;99528.63;;;10.34;100.00
70370;BME280;57790;51.356;-2.906;2023-12-04T09:52:04;99535.38;;;10.37;100.00
70370;BME280;57790;51.356;-2.906;2023-12-04T09:55:05;99532.94;;;10.35;100.00
70370;BME280;57790;51.356;-2.906;2023-12-04T09:58:06;99536.78;;;10.33;100.00
70370;BME280;57790;51.356;-2.906;2023-12-04T10:01:07;99540.63;;;10.30;100.00
70370;BME280;57790;51.356;-2.906;2023-12-04T10:04:07;99551.66;;;10.34;100.00
70370;BME280;57790;51.356;-2.906;2023-12-04T10:07:08;99546.94;;;10.29;100.00
70370;BME280;57790;51.356;-2.906;2023-12-04T10:10:08;99547.13;;;10.28;100.00
70370;BME280;57790;51.356;-2.906;2023-12-04T10:13:09;99559.56;;;10.27;100.00
70370;BME280;57790;51.356;-2.906;2023-12-04T10:16:10;99555.25;;;10.26;100.00
70370;BME280;57790;51.356;-2.906;2023-12-04T10:19:23;99552.78;;;10.25;100.00
70370;BME280;57790;51.356;-2.906;2023-12-04T10:22:26;99553.72;;;10.17;100.00
70370;BME280;57790;51.356;-2.906;2023-12-04T10:25:29;99553.53;;;10.19;100.00
70370;BME280;57790;51.356;-2.906;2023-12-04T10:28:30;99557.66;;;10.21;100.00
70370;BME280;57790;51.356;-2.906;2023-12-04T10:31:33;99566.22;;;10.23;100.00
70370;BME280;57790;51.356;-2.906;2023-12-04T10:34:34;99559.66;;;10.19;100.00
70370;BME280;57790;51.356;-2.906;2023-12-04T10:37:36;99569.88;;;10.22;100.00
70370;BME280;57790;51.356;-2.906;2023-12-04T10:40:37;99565.13;;;10.18;100.00
70370;BME280;57790;51.356;-2.906;2023-12-04T10:43:46;99562.47;;;10.18;100.00
70370;BME280;57790;51.356;-2.906;2023-12-04T10:46:48;99560.56;;;10.11;100.00
70370;BME280;57790;51.356;-2.906;2023-12-04T10:49:52;99569.34;;;10.12;100.00
70370;BME280;57790;51.356;-2.906;2023-12-04T10:52:53;99562.41;;;10.11;100.00
70370;BME280;57790;51.356;-2.906;2023-12-04T10:55:56;99561.59;;;10.10;100.00
70370;BME280;57790;51.356;-2.906;2023-12-04T10:59:00;99569.28;;;10.05;100.00
70370;BME280;57790;51.356;-2.906;2023-12-04T11:02:05;99561.34;;;10.05;100.00
70370;BME280;57790;51.356;-2.906;2023-12-04T11:05:14;99563.16;;;10.05;100.00
70370;BME280;57790;51.356;-2.906;2023-12-04T11:08:18;99567.66;;;10.04;100.00
70370;BME280;57790;51.356;-2.906;2023-12-04T11:11:26;99569.09;;;10.07;100.00
70370;BME280;57790;51.356;-2.906;2023-12-04T11:14:31;99571.34;;;10.10;100.00
70370;BME280;57790;51.356;-2.906;2023-12-04T11:17:36;99574.78;;;10.04;100.00
70370;BME280;57790;51.356;-2.906;2023-12-04T11:20:55;99574.53;;;9.99;100.00
70370;BME280;57790;51.356;-2.906;2023-12-04T11:23:56;99568.56;;;9.97;100.00
70370;BME280;57790;51.356;-2.906;2023-12-04T11:26:58;99568.84;;;10.02;100.00
70370;BME280;57790;51.356;-2.906;2023-12-04T11:29:59;99568.41;;;9.98;100.00
70370;BME280;57790;51.356;-2.906;2023-12-04T11:33:00;99571.34;;;9.89;100.00
70370;BME280;57790;51.356;-2.906;2023-12-04T11:36:11;99568.69;;;9.89;100.00
70370;BME280;57790;51.356;-2.906;2023-12-04T11:39:11;99584.41;;;9.90;100.00
70370;BME280;57790;51.356;-2.906;2023-12-04T11:42:12;99574.47;;;9.77;100.00
70370;BME280;57790;51.356;-2.906;2023-12-04T11:45:20;99574.91;;;9.81;100.00
70370;BME280;57790;51.356;-2.906;2023-12-04T11:48:23;99575.03;;;9.73;100.00
70370;BME280;57790;51.356;-2.906;2023-12-04T11:54:57;99573.31;;;9.65;100.00
70370;BME280;57790;51.356;-2.906;2023-12-04T11:58:00;99569.41;;;9.61;100.00
70370;BME280;57790;51.356;-2.906;2023-12-04T12:01:00;99573.63;;;9.56;100.00
70370;BME280;57790;51.356;-2.906;2023-12-04T12:04:01;99567.75;;;9.60;100.00
70370;BME280;57790;51.356;-2.906;2023-12-04T12:07:02;99572.78;;;9.55;100.00
70370;BME280;57790;51.356;-2.906;2023-12-04T12:10:05;99566.84;;;9.53;100.00
70370;BME280;57790;51.356;-2.906;2023-12-04T12:13:05;99565.56;;;9.49;100.00
70370;BME280;57790;51.356;-2.906;2023-12-04T12:16:06;99577.59;;;9.51;100.00
70370;BME280;57790;51.356;-2.906;2023-12-04T12:19:07;99588.47;;;9.57;100.00
70370;BME280;57790;51.356;-2.906;2023-12-04T12:22:07;99590.47;;;9.54;100.00
70370;BME280;57790;51.356;-2.906;2023-12-04T12:25:08;99583.72;;;9.52;100.00
70370;BME280;57790;51.356;-2.906;2023-12-04T12:28:09;99595.59;;;9.56;100.00
70370;BME280;57790;51.356;-2.906;2023-12-04T12:31:10;99602.06;;;9.39;100.00
70370;BME280;57790;51.356;-2.906;2023-12-04T12:34:10;99600.09;;;9.26;100.00
70370;BME280;57790;51.356;-2.906;2023-12-04T12:37:10;99600.91;;;9.27;100.00
70370;BME280;57790;51.356;-2.906;2023-12-04T12:40:11;99603.00;;;9.31;100.00
70370;BME280;57790;51.356;-2.906;2023-12-04T12:43:12;99612.56;;;9.17;100.00
70370;BME280;57790;51.356;-2.906;2023-12-04T12:46:12;99600.97;;;9.18;100.00
70370;BME280;57790;51.356;-2.906;2023-12-04T12:49:14;99610.53;;;9.05;100.00
70370;BME280;57790;51.356;-2.906;2023-12-04T12:52:14;99610.91;;;9.16;100.00
70370;BME280;57790;51.356;-2.906;2023-12-04T12:55:23;99611.63;;;9.10;100.00
70370;BME280;57790;51.356;-2.906;2023-12-04T12:58:24;99603.25;;;9.07;100.00
70370;BME280;57790;51.356;-2.906;2023-12-04T13:01:30;99612.56;;;9.17;100.00
70370;BME280;57790;51.356;-2.906;2023-12-04T13:04:38;99613.38;;;9.18;100.00
70370;BME280;57790;51.356;-2.906;2023-12-04T13:07:38;99613.81;;;9.07;100.00
70370;BME280;57790;51.356;-2.906;2023-12-04T13:10:40;99610.47;;;9.13;100.00
70370;BME280;57790;51.356;-2.906;2023-12-04T13:13:41;99614.13;;;9.12;100.00
70370;BME280;57790;51.356;-2.906;2023-12-04T13:16:41;99621.03;;;8.98;100.00
70370;BME280;57790;51.356;-2.906;2023-12-04T13:19:42;99618.72;;;9.10;100.00
70370;BME280;57790;51.356;-2.906;2023-12-04T13:22:43;99626.03;;;9.08;100.00
70370;BME280;57790;51.356;-2.906;2023-12-04T13:25:43;99629.94;;;8.97;100.00
70370;BME280;57790;51.356;-2.906;2023-12-04T13:28:44;99633.31;;;9.06;100.00
70370;BME280;57790;51.356;-2.906;2023-12-04T13:31:44;99641.88;;;9.08;100.00
70370;BME280;57790;51.356;-2.906;2023-12-04T13:34:46;99637.53;;;9.00;100.00
70370;BME280;57790;51.356;-2.906;2023-12-04T13:37:47;99645.09;;;9.03;100.00
70370;BME280;57790;51.356;-2.906;2023-12-04T13:40:54;99640.78;;;9.02;100.00
70370;BME280;57790;51.356;-2.906;2023-12-04T13:44:09;99642.81;;;9.00;100.00
70370;BME280;57790;51.356;-2.906;2023-12-04T13:47:09;99644.44;;;9.01;100.00
70370;BME280;57790;51.356;-2.906;2023-12-04T13:50:12;99641.69;;;8.94;100.00
70370;BME280;57790;51.356;-2.906;2023-12-04T13:53:12;99643.50;;;8.94;100.00
70370;BME280;57790;51.356;-2.906;2023-12-04T13:56:15;99646.88;;;8.88;100.00
70370;BME280;57790;51.356;-2.906;2023-12-04T13:59:21;99646.31;;;8.92;100.00
70370;BME280;57790;51.356;-2.906;2023-12-04T14:02:22;99653.75;;;8.97;100.00
70370;BME280;57790;51.356;-2.906;2023-12-04T14:05:22;99657.91;;;8.91;100.00
70370;BME280;57790;51.356;-2.906;2023-12-04T14:08:23;99658.34;;;8.95;100.00
70370;BME280;57790;51.356;-2.906;2023-12-04T14:11:23;99655.50;;;8.82;100.00
70370;BME280;57790;51.356;-2.906;2023-12-04T14:14:24;99663.31;;;8.75;100.00
70370;BME280;57790;51.356;-2.906;2023-12-04T14:17:24;99664.44;;;8.81;100.00
70370;BME280;57790;51.356;-2.906;2023-12-04T14:20:24;99667.84;;;8.89;100.00
70370;BME280;57790;51.356;-2.906;2023-12-04T14:23:26;99678.03;;;8.92;100.00
70370;BME280;57790;51.356;-2.906;2023-12-04T14:26:26;99678.41;;;8.89;100.00
70370;BME280;57790;51.356;-2.906;2023-12-04T14:29:27;99674.31;;;8.87;100.00
70370;BME280;57790;51.356;-2.906;2023-12-04T14:32:28;99667.25;;;8.79;100.00
70370;BME280;57790;51.356;-2.906;2023-12-04T14:35:28;99675.72;;;8.75;100.00
70370;BME280;57790;51.356;-2.906;2023-12-04T14:38:29;99683.09;;;8.79;100.00
70370;BME280;57790;51.356;-2.906;2023-12-04T14:41:30;99688.81;;;8.68;100.00
70370;BME280;57790;51.356;-2.906;2023-12-04T14:44:30;99695.03;;;8.75;100.00
70370;BME280;57790;51.356;-2.906;2023-12-04T14:47:32;99699.22;;;8.70;100.00
70370;BME280;57790;51.356;-2.906;2023-12-04T14:50:33;99696.50;;;8.78;100.00
70370;BME280;57790;51.356;-2.906;2023-12-04T14:53:35;99698.94;;;8.79;100.00
70370;BME280;57790;51.356;-2.906;2023-12-04T14:57:01;99705.78;;;8.74;100.00
70370;BME280;57790;51.356;-2.906;2023-12-04T15:00:19;99708.25;;;8.75;100.00
70370;BME280;57790;51.356;-2.906;2023-12-04T15:03:38;99708.69;;;8.79;100.00
70370;BME280;57790;51.356;-2.906;2023-12-04T15:07:13;99709.88;;;8.76;100.00
70370;BME280;57790;51.356;-2.906;2023-12-04T15:10:32;99717.16;;;8.74;100.00
70370;BME280;57790;51.356;-2.906;2023-12-04T15:13:52;99724.28;;;8.74;100.00
70370;BME280;57790;51.356;-2.906;2023-12-04T15:17:15;99729.91;;;8.71;100.00
70370;BME280;57790;51.356;-2.906;2023-12-04T15:20:30;99723.28;;;8.75;100.00
70370;BME280;57790;51.356;-2.906;2023-12-04T15:23:30;99739.16;;;8.67;100.00
70370;BME280;57790;51.356;-2.906;2023-12-04T15:26:30;99743.59;;;8.74;100.00
70370;BME280;57790;51.356;-2.906;2023-12-04T15:29:32;99750.06;;;8.72;100.00
70370;BME280;57790;51.356;-2.906;2023-12-04T15:32:32;99754.88;;;8.68;100.00
70370;BME280;57790;51.356;-2.906;2023-12-04T15:35:33;99761.00;;;8.60;100.00
70370;BME280;57790;51.356;-2.906;2023-12-04T15:38:33;99773.50;;;8.67;100.00
70370;BME280;57790;51.356;-2.906;2023-12-04T15:41:34;99774.22;;;8.60;100.00
70370;BME280;57790;51.356;-2.906;2023-12-04T15:44:34;99770.97;;;8.50;100.00